Two Harbors — WDH7890 — position and weather

sailwx.info

Track history (hours):
 
Tides and Currents Weather Stations Pressure Air Temp Water Temp Dewpoint Dewpoint Depression Visibility Wind Speed Wind Dir Waves Ship Positions

Two Harbors

Owner: Catalina Classic Cruises, San Diego, CA. More information available from US FCC via Universal Licensing System and Coast Guard Vessel Documentation Center.

Last reported at 2017-Oct-18 00:42 UTC. Time now 2017-Oct-20 16:30 UTC.
Position N 33°44' W 118°11'.

Length 24 m; draft 2.1 m.

Type: Ship. MMSI: 367652650.

Date/timePositionNaut miles runAvg speedWind from/ knotsBaromVisibWave heightAir tempDewpointWater temp
2017-Oct-18 00:42N 33°44' W 118°11'312.2
2017-Oct-18 00:25N 33°41' W 118°11'612.3
2017-Oct-17 23:56N 33°35' W 118°13'512.5
2017-Oct-17 23:30N 33°30' W 118°15'712.4
2017-Oct-17 22:55N 33°23' W 118°18'3 1.5
2017-Oct-17 20:57N 33°21' W 118°19'0 0.1
2017-Oct-17 18:43N 33°21' W 118°19'0 0.2
2017-Oct-17 18:17N 33°21' W 118°19'0 0.3
2017-Oct-17 17:15N 33°21' W 118°19'0 0.9
2017-Oct-17 16:49N 33°21' W 118°19'0 0.7
2017-Oct-17 16:21N 33°21' W 118°19'0 0.5
2017-Oct-17 15:37N 33°21' W 118°19'0 0.1
2017-Oct-17 15:19N 33°21' W 118°19'0 0.9
2017-Oct-17 15:01N 33°21' W 118°19'0 0.5
2017-Oct-17 14:23N 33°21' W 118°19'3 0.1
2017-Oct-16 14:06N 33°24' W 118°18'1015.8
2017-Oct-16 13:28N 33°33' W 118°14'13 0.9
2017-Oct-15 23:50N 33°46' W 118°12'3 8.2
2017-Oct-15 23:30N 33°43' W 118°11'812.9
2017-Oct-15 22:55N 33°36' W 118°14'512.9
2017-Oct-15 22:30N 33°31' W 118°17'8 3.6
2017-Oct-15 20:13N 33°39' W 118°13'312.2
2017-Oct-15 19:59N 33°41' W 118°12'4 8.5
2017-Oct-15 19:30N 33°45' W 118°12'0 0.0
2017-Oct-15 19:00N 33°45' W 118°12'0 0.0
2017-Oct-15 18:30N 33°45' W 118°12'0 0.0
2017-Oct-15 18:00N 33°45' W 118°12'  
2017-Oct-11 00:00N 33°31' W 118°15'712.9
2017-Oct-10 23:30N 33°25' W 118°17'4 7.4
2017-Oct-10 22:56N 33°21' W 118°19'1 1.2
2017-Oct-10 22:30N 33°21' W 118°19'1 1.0
2017-Oct-10 21:57N 33°21' W 118°19'0 0.1
2017-Oct-10 21:29N 33°21' W 118°19'0 1.0
2017-Oct-10 21:00N 33°21' W 118°19'1 1.0
2017-Oct-10 20:29N 33°21' W 118°19'1 1.1
2017-Oct-10 20:00N 33°21' W 118°19'1 1.1
2017-Oct-10 19:30N 33°21' W 118°19'1 1.1
2017-Oct-10 19:00N 33°21' W 118°19'1 0.8
2017-Oct-10 18:20N 33°21' W 118°19'0 0.1
2017-Oct-10 17:57N 33°21' W 118°19'0 0.9
2017-Oct-10 17:30N 33°21' W 118°19'0 0.9
2017-Oct-10 16:59N 33°21' W 118°19'0 0.1
2017-Oct-10 16:29N 33°21' W 118°19'1 1.1
2017-Oct-10 16:00N 33°21' W 118°19'1 1.1
2017-Oct-10 15:29N 33°21' W 118°19'0 0.0
2017-Oct-10 15:00N 33°21' W 118°19'1 0.0
2017-Oct-09 23:09N 33°21' W 118°19'0 1.2
2017-Oct-09 23:00N 33°21' W 118°19'0 0.5
2017-Oct-09 22:30N 33°21' W 118°19'0 0.1
2017-Oct-09 22:00N 33°21' W 118°19'1 1.0
2017-Oct-09 21:30N 33°21' W 118°19'0 0.6
2017-Oct-09 21:00N 33°21' W 118°19'0 0.5
2017-Oct-09 20:30N 33°21' W 118°19'1 1.0
2017-Oct-09 20:00N 33°21' W 118°19'0 1.0
2017-Oct-09 19:30N 33°21' W 118°19'0 0.1
2017-Oct-09 18:45N 33°21' W 118°19'0 0.1
2017-Oct-09 18:28N 33°21' W 118°19'0 0.0
2017-Oct-09 17:56N 33°21' W 118°19'0 0.3
2017-Oct-09 17:16N 33°21' W 118°19'0 0.5
2017-Oct-09 17:00N 33°21' W 118°19'0 0.0
2017-Oct-09 16:26N 33°21' W 118°19'0 0.3
2017-Oct-09 16:00N 33°21' W 118°19'0 0.1
2017-Oct-09 14:44N 33°21' W 118°19'0 0.4
2017-Oct-09 14:28N 33°21' W 118°19'  
Track history (hours):
 
Tides and Currents Weather Stations Pressure Air Temp Water Temp Dewpoint Dewpoint Depression Visibility Wind Speed Wind Dir Waves Ship Positions

Two Harbors

Owner: Catalina Classic Cruises, San Diego, CA. More information available from US FCC via Universal Licensing System and Coast Guard Vessel Documentation Center.

Last reported at 2017-Oct-18 00:42 UTC. Time now 2017-Oct-20 16:30 UTC.
Position N 33°44' W 118°11'.

Length 24 m; draft 2.1 m.

Type: Ship. MMSI: 367652650.

Date/timePositionNaut miles runAvg speedWind from/ knotsBaromVisibWave heightAir tempDewpointWater temp
2017-Oct-18 00:42N 33°44' W 118°11'312.2
2017-Oct-18 00:25N 33°41' W 118°11'612.3
2017-Oct-17 23:56N 33°35' W 118°13'512.5
2017-Oct-17 23:30N 33°30' W 118°15'712.4
2017-Oct-17 22:55N 33°23' W 118°18'3 1.5
2017-Oct-17 20:57N 33°21' W 118°19'0 0.1
2017-Oct-17 18:43N 33°21' W 118°19'0 0.2
2017-Oct-17 18:17N 33°21' W 118°19'0 0.3
2017-Oct-17 17:15N 33°21' W 118°19'0 0.9
2017-Oct-17 16:49N 33°21' W 118°19'0 0.7
2017-Oct-17 16:21N 33°21' W 118°19'0 0.5
2017-Oct-17 15:37N 33°21' W 118°19'0 0.1
2017-Oct-17 15:19N 33°21' W 118°19'0 0.9
2017-Oct-17 15:01N 33°21' W 118°19'0 0.5
2017-Oct-17 14:23N 33°21' W 118°19'3 0.1
2017-Oct-16 14:06N 33°24' W 118°18'1015.8
2017-Oct-16 13:28N 33°33' W 118°14'13 0.9
2017-Oct-15 23:50N 33°46' W 118°12'3 8.2
2017-Oct-15 23:30N 33°43' W 118°11'812.9
2017-Oct-15 22:55N 33°36' W 118°14'512.9
2017-Oct-15 22:30N 33°31' W 118°17'8 3.6
2017-Oct-15 20:13N 33°39' W 118°13'312.2
2017-Oct-15 19:59N 33°41' W 118°12'4 8.5
2017-Oct-15 19:30N 33°45' W 118°12'0 0.0
2017-Oct-15 19:00N 33°45' W 118°12'0 0.0
2017-Oct-15 18:30N 33°45' W 118°12'0 0.0
2017-Oct-15 18:00N 33°45' W 118°12'  
2017-Oct-11 00:00N 33°31' W 118°15'712.9
2017-Oct-10 23:30N 33°25' W 118°17'4 7.4
2017-Oct-10 22:56N 33°21' W 118°19'1 1.2
2017-Oct-10 22:30N 33°21' W 118°19'1 1.0
2017-Oct-10 21:57N 33°21' W 118°19'0 0.1
2017-Oct-10 21:29N 33°21' W 118°19'0 1.0
2017-Oct-10 21:00N 33°21' W 118°19'1 1.0
2017-Oct-10 20:29N 33°21' W 118°19'1 1.1
2017-Oct-10 20:00N 33°21' W 118°19'1 1.1
2017-Oct-10 19:30N 33°21' W 118°19'1 1.1
2017-Oct-10 19:00N 33°21' W 118°19'1 0.8
2017-Oct-10 18:20N 33°21' W 118°19'0 0.1
2017-Oct-10 17:57N 33°21' W 118°19'0 0.9
2017-Oct-10 17:30N 33°21' W 118°19'0 0.9
2017-Oct-10 16:59N 33°21' W 118°19'0 0.1
2017-Oct-10 16:29N 33°21' W 118°19'1 1.1
2017-Oct-10 16:00N 33°21' W 118°19'1 1.1
2017-Oct-10 15:29N 33°21' W 118°19'0 0.0
2017-Oct-10 15:00N 33°21' W 118°19'1 0.0
2017-Oct-09 23:09N 33°21' W 118°19'0 1.2
2017-Oct-09 23:00N 33°21' W 118°19'0 0.5
2017-Oct-09 22:30N 33°21' W 118°19'0 0.1
2017-Oct-09 22:00N 33°21' W 118°19'1 1.0
2017-Oct-09 21:30N 33°21' W 118°19'0 0.6
2017-Oct-09 21:00N 33°21' W 118°19'0 0.5
2017-Oct-09 20:30N 33°21' W 118°19'1 1.0
2017-Oct-09 20:00N 33°21' W 118°19'0 1.0
2017-Oct-09 19:30N 33°21' W 118°19'0 0.1
2017-Oct-09 18:45N 33°21' W 118°19'0 0.1
2017-Oct-09 18:28N 33°21' W 118°19'0 0.0
2017-Oct-09 17:56N 33°21' W 118°19'0 0.3
2017-Oct-09 17:16N 33°21' W 118°19'0 0.5
2017-Oct-09 17:00N 33°21' W 118°19'0 0.0
2017-Oct-09 16:26N 33°21' W 118°19'0 0.3
2017-Oct-09 16:00N 33°21' W 118°19'0 0.1
2017-Oct-09 14:44N 33°21' W 118°19'0 0.4
2017-Oct-09 14:28N 33°21' W 118°19'  

Dump ship's entire track history